sensor_id;sensor_type;location;lat;lon;timestamp;pressure;altitude;pressure_sealevel;temperature;humidity
20160;BME280;50187;50.492;12.134;2023-04-03T00:00:17;98461.84;;;19.97;34.88
20160;BME280;50187;50.492;12.134;2023-04-03T00:03:02;98462.69;;;19.97;34.91
20160;BME280;50187;50.492;12.134;2023-04-03T00:05:48;98461.84;;;19.97;34.84
20160;BME280;50187;50.492;12.134;2023-04-03T00:08:34;98462.97;;;19.94;34.79
20160;BME280;50187;50.492;12.134;2023-04-03T00:11:19;98464.81;;;19.94;34.97
20160;BME280;50187;50.492;12.134;2023-04-03T00:14:05;98463.13;;;19.93;35.00
20160;BME280;50187;50.492;12.134;2023-04-03T00:16:50;98447.31;;;19.88;34.72
20160;BME280;50187;50.492;12.134;2023-04-03T00:19:35;98458.41;;;19.95;34.95
20160;BME280;50187;50.492;12.134;2023-04-03T00:22:20;98466.81;;;19.92;35.01
20160;BME280;50187;50.492;12.134;2023-04-03T00:25:05;98451.13;;;19.85;34.85
20160;BME280;50187;50.492;12.134;2023-04-03T00:27:51;98459.81;;;19.89;35.10
20160;BME280;50187;50.492;12.134;2023-04-03T00:30:36;98471.47;;;19.89;35.00
20160;BME280;50187;50.492;12.134;2023-04-03T00:33:22;98465.09;;;19.90;34.86
20160;BME280;50187;50.492;12.134;2023-04-03T00:36:09;98471.47;;;19.89;35.11
20160;BME280;50187;50.492;12.134;2023-04-03T00:38:55;98474.31;;;19.88;35.02
20160;BME280;50187;50.492;12.134;2023-04-03T00:41:40;98470.78;;;19.87;34.82
20160;BME280;50187;50.492;12.134;2023-04-03T00:47:15;98473.19;;;19.90;34.72
20160;BME280;50187;50.492;12.134;2023-04-03T00:50:01;98477.00;;;19.88;34.86
20160;BME280;50187;50.492;12.134;2023-04-03T00:52:47;98474.44;;;19.86;34.82
20160;BME280;50187;50.492;12.134;2023-04-03T00:55:35;98483.28;;;19.88;34.93
20160;BME280;50187;50.492;12.134;2023-04-03T00:58:27;98478.72;;;19.89;34.78
20160;BME280;50187;50.492;12.134;2023-04-03T01:01:16;98481.44;;;19.89;34.89
20160;BME280;50187;50.492;12.134;2023-04-03T01:04:05;98475.19;;;19.88;34.70
20160;BME280;50187;50.492;12.134;2023-04-03T01:06:51;98476.31;;;19.86;34.83
20160;BME280;50187;50.492;12.134;2023-04-03T01:09:37;98482.41;;;19.88;34.80
20160;BME280;50187;50.492;12.134;2023-04-03T01:12:27;98479.56;;;19.89;34.86
20160;BME280;50187;50.492;12.134;2023-04-03T01:15:20;98488.53;;;19.90;34.88
20160;BME280;50187;50.492;12.134;2023-04-03T01:18:09;98481.72;;;19.86;34.98
20160;BME280;50187;50.492;12.134;2023-04-03T01:26:36;98489.53;;;19.89;34.90
20160;BME280;50187;50.492;12.134;2023-04-03T01:29:21;98493.22;;;19.88;34.94
20160;BME280;50187;50.492;12.134;2023-04-03T01:32:07;98491.06;;;19.82;34.96
20160;BME280;50187;50.492;12.134;2023-04-03T01:34:52;98495.50;;;19.83;34.96
20160;BME280;50187;50.492;12.134;2023-04-03T01:37:38;98500.75;;;19.84;34.91
20160;BME280;50187;50.492;12.134;2023-04-03T01:40:25;98500.47;;;19.87;34.86
20160;BME280;50187;50.492;12.134;2023-04-03T01:43:11;98507.84;;;19.85;34.89
20160;BME280;50187;50.492;12.134;2023-04-03T01:45:56;98509.00;;;19.83;34.78
20160;BME280;50187;50.492;12.134;2023-04-03T01:48:42;98510.69;;;19.84;34.83
20160;BME280;50187;50.492;12.134;2023-04-03T01:51:27;98511.56;;;19.84;34.95
20160;BME280;50187;50.492;12.134;2023-04-03T01:54:13;98518.63;;;19.85;34.71
20160;BME280;50187;50.492;12.134;2023-04-03T01:56:58;98506.16;;;19.84;34.89
20160;BME280;50187;50.492;12.134;2023-04-03T01:59:43;98515.38;;;19.82;34.84
20160;BME280;50187;50.492;12.134;2023-04-03T02:02:29;98510.13;;;19.80;34.75
20160;BME280;50187;50.492;12.134;2023-04-03T02:05:14;98509.00;;;19.83;34.77
20160;BME280;50187;50.492;12.134;2023-04-03T02:08:00;98510.69;;;19.84;34.82
20160;BME280;50187;50.492;12.134;2023-04-03T02:10:47;98507.84;;;19.85;34.88
20160;BME280;50187;50.492;12.134;2023-04-03T02:13:33;98511.84;;;19.81;34.93
20160;BME280;50187;50.492;12.134;2023-04-03T02:16:18;98517.22;;;19.81;34.97
20160;BME280;50187;50.492;12.134;2023-04-03T02:19:03;98508.13;;;19.82;34.70
20160;BME280;50187;50.492;12.134;2023-04-03T02:21:49;98506.44;;;19.81;34.88
20160;BME280;50187;50.492;12.134;2023-04-03T02:24:34;98506.44;;;19.81;34.78
20160;BME280;50187;50.492;12.134;2023-04-03T02:27:19;98513.66;;;19.81;34.87
20160;BME280;50187;50.492;12.134;2023-04-03T02:30:06;98507.28;;;19.82;34.75
20160;BME280;50187;50.492;12.134;2023-04-03T02:32:51;98514.38;;;19.83;34.61
20160;BME280;50187;50.492;12.134;2023-04-03T02:35:38;98513.50;;;19.82;34.84
20160;BME280;50187;50.492;12.134;2023-04-03T02:38:24;98513.78;;;19.79;34.93
20160;BME280;50187;50.492;12.134;2023-04-03T02:41:12;98519.94;;;19.81;34.88
20160;BME280;50187;50.492;12.134;2023-04-03T02:43:58;98519.78;;;19.83;34.79
20160;BME280;50187;50.492;12.134;2023-04-03T02:46:43;98514.38;;;19.83;34.57
20160;BME280;50187;50.492;12.134;2023-04-03T02:49:28;98513.50;;;19.82;34.78
20160;BME280;50187;50.492;12.134;2023-04-03T02:52:14;98524.69;;;19.78;34.83
20160;BME280;50187;50.492;12.134;2023-04-03T02:55:00;98524.47;;;19.81;34.67
20160;BME280;50187;50.492;12.134;2023-04-03T02:57:45;98523.47;;;19.82;34.69
20160;BME280;50187;50.492;12.134;2023-04-03T03:00:31;98537.81;;;19.82;34.60
20160;BME280;50187;50.492;12.134;2023-04-03T03:03:16;98521.16;;;19.77;34.68
20160;BME280;50187;50.492;12.134;2023-04-03T03:06:07;98532.94;;;19.76;34.92
20160;BME280;50187;50.492;12.134;2023-04-03T03:08:52;98522.00;;;19.78;34.80
20160;BME280;50187;50.492;12.134;2023-04-03T03:11:37;98544.22;;;19.81;34.82
20160;BME280;50187;50.492;12.134;2023-04-03T03:14:23;98533.66;;;19.78;34.59
20160;BME280;50187;50.492;12.134;2023-04-03T03:17:08;98540.06;;;19.77;34.84
20160;BME280;50187;50.492;12.134;2023-04-03T03:19:54;98544.44;;;19.78;34.76
20160;BME280;50187;50.492;12.134;2023-04-03T03:22:39;98539.03;;;19.78;34.63
20160;BME280;50187;50.492;12.134;2023-04-03T03:25:24;98541.63;;;19.80;34.63
20160;BME280;50187;50.492;12.134;2023-04-03T03:28:09;98557.09;;;19.78;34.68
20160;BME280;50187;50.492;12.134;2023-04-03T03:30:54;98542.63;;;19.79;34.81
20160;BME280;50187;50.492;12.134;2023-04-03T03:33:40;98542.63;;;19.79;34.47
20160;BME280;50187;50.492;12.134;2023-04-03T03:36:25;98554.16;;;19.81;34.61
20160;BME280;50187;50.492;12.134;2023-04-03T03:39:12;98541.75;;;19.78;34.71
20160;BME280;50187;50.492;12.134;2023-04-03T03:41:57;98550.72;;;19.79;34.60
20160;BME280;50187;50.492;12.134;2023-04-03T03:44:43;98548.91;;;19.79;34.51
20160;BME280;50187;50.492;12.134;2023-04-03T03:47:28;98557.72;;;19.81;34.73
20160;BME280;50187;50.492;12.134;2023-04-03T03:50:14;98555.88;;;19.82;34.40
20160;BME280;50187;50.492;12.134;2023-04-03T03:52:59;98549.75;;;19.80;34.62
20160;BME280;50187;50.492;12.134;2023-04-03T03:55:46;98545.31;;;19.79;34.69
20160;BME280;50187;50.492;12.134;2023-04-03T03:58:31;98549.84;;;19.78;34.44
20160;BME280;50187;50.492;12.134;2023-04-03T04:01:17;98547.78;;;19.82;34.59
20160;BME280;50187;50.492;12.134;2023-04-03T04:04:05;98555.13;;;19.80;34.45
20160;BME280;50187;50.492;12.134;2023-04-03T04:06:50;98552.53;;;19.78;34.45
20160;BME280;50187;50.492;12.134;2023-04-03T04:09:37;98558.72;;;19.80;34.50
20160;BME280;50187;50.492;12.134;2023-04-03T04:12:22;98557.00;;;19.79;34.71
20160;BME280;50187;50.492;12.134;2023-04-03T04:15:08;98567.50;;;19.82;34.36
20160;BME280;50187;50.492;12.134;2023-04-03T04:17:53;98560.44;;;19.81;34.44
20160;BME280;50187;50.492;12.134;2023-04-03T04:20:39;98560.66;;;19.78;34.49
20160;BME280;50187;50.492;12.134;2023-04-03T04:23:25;98557.50;;;19.73;34.71
20160;BME280;50187;50.492;12.134;2023-04-03T04:26:11;98571.44;;;19.78;34.61
20160;BME280;50187;50.492;12.134;2023-04-03T04:28:57;98578.44;;;19.81;34.64
20160;BME280;50187;50.492;12.134;2023-04-03T04:31:43;98570.50;;;19.79;34.50
20160;BME280;50187;50.492;12.134;2023-04-03T04:34:28;98570.50;;;19.79;34.49
20160;BME280;50187;50.492;12.134;2023-04-03T04:37:15;98576.63;;;19.81;34.63
20160;BME280;50187;50.492;12.134;2023-04-03T04:40:01;98571.22;;;19.81;34.31
20160;BME280;50187;50.492;12.134;2023-04-03T04:42:47;98576.00;;;19.78;34.42
20160;BME280;50187;50.492;12.134;2023-04-03T04:45:33;98579.53;;;19.78;34.62
20160;BME280;50187;50.492;12.134;2023-04-03T04:48:19;98572.44;;;19.77;34.51
20160;BME280;50187;50.492;12.134;2023-04-03T04:51:04;98585.72;;;19.80;34.36
20160;BME280;50187;50.492;12.134;2023-04-03T04:53:50;98583.84;;;19.81;34.41
20160;BME280;50187;50.492;12.134;2023-04-03T04:56:37;98588.50;;;19.79;34.43
20160;BME280;50187;50.492;12.134;2023-04-03T04:59:22;98594.91;;;19.78;34.42
20160;BME280;50187;50.492;12.134;2023-04-03T05:02:10;98596.38;;;19.82;34.45
20160;BME280;50187;50.492;12.134;2023-04-03T05:04:57;98605.91;;;19.86;34.51
20160;BME280;50187;50.492;12.134;2023-04-03T05:07:46;98606.34;;;19.91;34.30
20160;BME280;50187;50.492;12.134;2023-04-03T05:10:32;98605.69;;;19.99;34.40
20160;BME280;50187;50.492;12.134;2023-04-03T05:13:17;98608.84;;;20.04;34.33
20160;BME280;50187;50.492;12.134;2023-04-03T05:16:02;98608.41;;;20.08;34.07
20160;BME280;50187;50.492;12.134;2023-04-03T05:18:48;98612.41;;;20.14;34.11
20160;BME280;50187;50.492;12.134;2023-04-03T05:21:36;98618.38;;;20.18;34.12
20160;BME280;50187;50.492;12.134;2023-04-03T05:24:26;98619.69;;;20.14;34.08
20160;BME280;50187;50.492;12.134;2023-04-03T05:27:12;98621.53;;;20.23;34.00
20160;BME280;50187;50.492;12.134;2023-04-03T05:30:02;98620.13;;;20.29;33.77
20160;BME280;50187;50.492;12.134;2023-04-03T05:32:49;98622.84;;;20.29;33.79
20160;BME280;50187;50.492;12.134;2023-04-03T05:35:47;98621.72;;;20.31;33.76
20160;BME280;50187;50.492;12.134;2023-04-03T05:38:36;98625.84;;;20.35;33.67
20160;BME280;50187;50.492;12.134;2023-04-03T05:41:22;98625.56;;;20.38;33.92
20160;BME280;50187;50.492;12.134;2023-04-03T05:44:08;98629.00;;;20.40;33.80
20160;BME280;50187;50.492;12.134;2023-04-03T05:46:53;98628.13;;;20.40;33.85
20160;BME280;50187;50.492;12.134;2023-04-03T05:49:39;98636.84;;;20.44;33.76
20160;BME280;50187;50.492;12.134;2023-04-03T05:52:33;98630.31;;;20.46;33.83
20160;BME280;50187;50.492;12.134;2023-04-03T05:55:19;98634.69;;;20.47;33.54
20160;BME280;50187;50.492;12.134;2023-04-03T05:58:05;98637.41;;;20.47;33.49
20160;BME280;50187;50.492;12.134;2023-04-03T06:00:53;98642.81;;;20.47;33.67
20160;BME280;50187;50.492;12.134;2023-04-03T06:03:38;98644.22;;;20.51;33.58
20160;BME280;50187;50.492;12.134;2023-04-03T06:06:49;98639.81;;;20.50;33.62
20160;BME280;50187;50.492;12.134;2023-04-03T06:09:36;98635.84;;;20.54;33.44
20160;BME280;50187;50.492;12.134;2023-04-03T06:12:22;98645.94;;;20.52;33.40
20160;BME280;50187;50.492;12.134;2023-04-03T06:15:08;98647.06;;;20.50;33.63
20160;BME280;50187;50.492;12.134;2023-04-03T06:17:54;98650.94;;;20.57;33.67
20160;BME280;50187;50.492;12.134;2023-04-03T06:20:40;98645.66;;;20.55;33.37
20160;BME280;50187;50.492;12.134;2023-04-03T06:23:25;98639.72;;;20.62;33.60
20160;BME280;50187;50.492;12.134;2023-04-03T06:26:11;98648.09;;;20.58;33.57
20160;BME280;50187;50.492;12.134;2023-04-03T06:28:56;98655.22;;;20.59;33.46
20160;BME280;50187;50.492;12.134;2023-04-03T06:31:41;98657.06;;;20.59;33.39
20160;BME280;50187;50.492;12.134;2023-04-03T06:34:26;98648.81;;;20.61;33.57
20160;BME280;50187;50.492;12.134;2023-04-03T06:37:17;98657.91;;;20.59;33.40
20160;BME280;50187;50.492;12.134;2023-04-03T06:40:04;98665.75;;;20.63;33.57
20160;BME280;50187;50.492;12.134;2023-04-03T06:42:49;98670.72;;;20.57;33.50
20160;BME280;50187;50.492;12.134;2023-04-03T06:45:36;98671.72;;;20.56;33.69
20160;BME280;50187;50.492;12.134;2023-04-03T06:48:22;98670.44;;;20.61;33.53
20160;BME280;50187;50.492;12.134;2023-04-03T06:51:22;98674.97;;;20.60;33.49
20160;BME280;50187;50.492;12.134;2023-04-03T06:54:08;98678.28;;;20.64;33.31
20160;BME280;50187;50.492;12.134;2023-04-03T06:56:53;98690.66;;;20.66;33.32
20160;BME280;50187;50.492;12.134;2023-04-03T06:59:39;98689.09;;;20.64;33.40
20160;BME280;50187;50.492;12.134;2023-04-03T07:02:25;98684.66;;;20.63;33.41
20160;BME280;50187;50.492;12.134;2023-04-03T07:05:11;98683.53;;;20.65;33.38
20160;BME280;50187;50.492;12.134;2023-04-03T07:07:57;98692.78;;;20.63;33.42
20160;BME280;50187;50.492;12.134;2023-04-03T07:10:43;98697.81;;;20.67;33.37
20160;BME280;50187;50.492;12.134;2023-04-03T07:13:28;98711.19;;;20.69;33.36
20160;BME280;50187;50.492;12.134;2023-04-03T07:16:14;98706.16;;;20.64;33.28
20160;BME280;50187;50.492;12.134;2023-04-03T07:18:59;98708.84;;;20.64;33.53
20160;BME280;50187;50.492;12.134;2023-04-03T07:21:45;98718.28;;;20.70;33.30
20160;BME280;50187;50.492;12.134;2023-04-03T07:24:30;98720.75;;;20.73;33.44
20160;BME280;50187;50.492;12.134;2023-04-03T07:27:16;98726.28;;;20.71;33.29
20160;BME280;50187;50.492;12.134;2023-04-03T07:30:02;98730.41;;;20.75;33.44
20160;BME280;50187;50.492;12.134;2023-04-03T07:32:47;98727.16;;;20.72;33.38
20160;BME280;50187;50.492;12.134;2023-04-03T07:35:33;98728.88;;;20.73;33.56
20160;BME280;50187;50.492;12.134;2023-04-03T07:38:25;98726.56;;;20.78;33.43
20160;BME280;50187;50.492;12.134;2023-04-03T07:41:16;98729.72;;;20.83;33.10
20160;BME280;50187;50.492;12.134;2023-04-03T07:44:02;98729.31;;;20.88;33.38
20160;BME280;50187;50.492;12.134;2023-04-03T07:46:48;98741.41;;;20.93;33.24
20160;BME280;50187;50.492;12.134;2023-04-03T07:49:33;98740.72;;;20.91;33.08
20160;BME280;50187;50.492;12.134;2023-04-03T07:52:19;98736.00;;;20.93;33.35
20160;BME280;50187;50.492;12.134;2023-04-03T07:55:05;98731.34;;;20.96;33.04
20160;BME280;50187;50.492;12.134;2023-04-03T07:57:51;98744.00;;;20.95;33.32
20160;BME280;50187;50.492;12.134;2023-04-03T08:00:37;98742.84;;;20.98;33.35
20160;BME280;50187;50.492;12.134;2023-04-03T08:03:23;98751.13;;;20.96;33.27
20160;BME280;50187;50.492;12.134;2023-04-03T08:06:09;98744.88;;;20.96;33.32
20160;BME280;50187;50.492;12.134;2023-04-03T08:09:00;98752.97;;;20.96;33.05
20160;BME280;50187;50.492;12.134;2023-04-03T08:11:46;98747.28;;;20.99;33.12
20160;BME280;50187;50.492;12.134;2023-04-03T08:14:32;98761.66;;;20.99;33.38
20160;BME280;50187;50.492;12.134;2023-04-03T08:17:19;98750.00;;;20.99;33.24
20160;BME280;50187;50.492;12.134;2023-04-03T08:20:06;98753.69;;;20.98;33.32
20160;BME280;50187;50.492;12.134;2023-04-03T08:22:53;98753.41;;;21.01;33.32
20160;BME280;50187;50.492;12.134;2023-04-03T08:25:40;98753.09;;;21.04;33.26
20160;BME280;50187;50.492;12.134;2023-04-03T08:28:26;98760.66;;;21.00;33.33
20160;BME280;50187;50.492;12.134;2023-04-03T08:31:16;98765.09;;;21.01;33.15
20160;BME280;50187;50.492;12.134;2023-04-03T08:34:03;98772.19;;;21.02;33.11
20160;BME280;50187;50.492;12.134;2023-04-03T08:36:48;98772.06;;;21.04;33.27
20160;BME280;50187;50.492;12.134;2023-04-03T08:39:33;98776.09;;;21.09;33.17
20160;BME280;50187;50.492;12.134;2023-04-03T08:42:35;98763.13;;;21.13;33.08
20160;BME280;50187;50.492;12.134;2023-04-03T08:45:32;98781.38;;;21.21;32.90
20160;BME280;50187;50.492;12.134;2023-04-03T08:48:47;98778.53;;;21.22;32.80
20160;BME280;50187;50.492;12.134;2023-04-03T08:51:46;98782.06;;;21.23;32.95
20160;BME280;50187;50.492;12.134;2023-04-03T08:54:39;98773.38;;;21.29;32.92
20160;BME280;50187;50.492;12.134;2023-04-03T08:57:32;98788.19;;;21.25;32.79
20160;BME280;50187;50.492;12.134;2023-04-03T09:00:21;98784.06;;;21.31;32.85
20160;BME280;50187;50.492;12.134;2023-04-03T09:03:12;98787.34;;;21.34;32.68
20160;BME280;50187;50.492;12.134;2023-04-03T09:06:08;98785.50;;;21.35;32.69
20160;BME280;50187;50.492;12.134;2023-04-03T09:12:17;98781.81;;;21.36;32.90
20160;BME280;50187;50.492;12.134;2023-04-03T09:15:23;98785.50;;;21.35;32.89
20160;BME280;50187;50.492;12.134;2023-04-03T09:18:28;98790.50;;;21.39;32.67
20160;BME280;50187;50.492;12.134;2023-04-03T09:21:36;98794.34;;;21.37;32.88
20160;BME280;50187;50.492;12.134;2023-04-03T09:24:22;98785.50;;;21.35;32.98
20160;BME280;50187;50.492;12.134;2023-04-03T09:27:11;98788.50;;;21.32;32.94
20160;BME280;50187;50.492;12.134;2023-04-03T09:29:57;98781.34;;;21.31;32.74
20160;BME280;50187;50.492;12.134;2023-04-03T09:32:45;98780.81;;;21.27;32.95
20160;BME280;50187;50.492;12.134;2023-04-03T09:35:35;98785.63;;;21.23;32.83
20160;BME280;50187;50.492;12.134;2023-04-03T09:38:32;98787.03;;;21.18;32.83
20160;BME280;50187;50.492;12.134;2023-04-03T09:41:18;98782.50;;;21.18;33.09
20160;BME280;50187;50.492;12.134;2023-04-03T09:44:19;98784.63;;;21.15;33.18
20160;BME280;50187;50.492;12.134;2023-04-03T09:47:30;98778.50;;;21.13;33.01
20160;BME280;50187;50.492;12.134;2023-04-03T09:50:20;98783.19;;;21.10;33.00
20160;BME280;50187;50.492;12.134;2023-04-03T09:53:07;98782.34;;;21.10;32.90
20160;BME280;50187;50.492;12.134;2023-04-03T10:02:40;98781.06;;;21.14;33.00
20160;BME280;50187;50.492;12.134;2023-04-03T10:05:38;98782.50;;;21.18;32.89
20160;BME280;50187;50.492;12.134;2023-04-03T10:08:33;98776.81;;;21.21;32.99
20160;BME280;50187;50.492;12.134;2023-04-03T10:11:18;98777.34;;;21.25;32.96
20160;BME280;50187;50.492;12.134;2023-04-03T10:14:16;98780.81;;;21.27;32.78
20160;BME280;50187;50.492;12.134;2023-04-03T10:18:00;98748.75;;;21.13;32.92
20160;BME280;50187;50.492;12.134;2023-04-03T10:23:21;98771.84;;;21.26;32.82
20160;BME280;50187;50.492;12.134;2023-04-03T10:32:41;98765.13;;;21.31;32.95
20160;BME280;50187;50.492;12.134;2023-04-03T10:35:48;98761.41;;;21.32;32.75
20160;BME280;50187;50.492;12.134;2023-04-03T10:54:26;98741.03;;;21.27;32.70
20160;BME280;50187;50.492;12.134;2023-04-03T10:57:18;98763.44;;;21.30;32.83
20160;BME280;50187;50.492;12.134;2023-04-03T11:00:06;98741.63;;;21.31;33.09
20160;BME280;50187;50.492;12.134;2023-04-03T11:02:57;98733.66;;;21.30;33.04
20160;BME280;50187;50.492;12.134;2023-04-03T11:05:47;98732.22;;;21.25;32.95
20160;BME280;50187;50.492;12.134;2023-04-03T11:08:55;98732.66;;;21.21;32.99
20160;BME280;50187;50.492;12.134;2023-04-03T11:11:43;98728.38;;;21.18;33.08
20160;BME280;50187;50.492;12.134;2023-04-03T11:14:31;98734.09;;;21.15;33.10
20160;BME280;50187;50.492;12.134;2023-04-03T11:20:17;98744.47;;;21.10;33.10
20160;BME280;50187;50.492;12.134;2023-04-03T11:23:08;98729.94;;;21.11;33.01
20160;BME280;50187;50.492;12.134;2023-04-03T11:26:27;98725.38;;;21.12;33.33
20160;BME280;50187;50.492;12.134;2023-04-03T11:29:15;98724.53;;;21.11;33.03
20160;BME280;50187;50.492;12.134;2023-04-03T11:32:26;98722.25;;;21.16;32.99
20160;BME280;50187;50.492;12.134;2023-04-03T11:35:16;98714.09;;;21.06;33.05
20160;BME280;50187;50.492;12.134;2023-04-03T11:38:03;98715.00;;;21.17;33.11
20160;BME280;50187;50.492;12.134;2023-04-03T11:40:51;98718.53;;;21.17;32.94
20160;BME280;50187;50.492;12.134;2023-04-03T11:46:54;98715.41;;;21.22;33.04
20160;BME280;50187;50.492;12.134;2023-04-03T11:58:17;98712.41;;;21.25;32.96
20160;BME280;50187;50.492;12.134;2023-04-03T12:01:06;98682.78;;;21.14;33.01
20160;BME280;50187;50.492;12.134;2023-04-03T12:09:28;98682.38;;;21.18;33.06
20160;BME280;50187;50.492;12.134;2023-04-03T12:12:33;98689.63;;;21.18;33.27
20160;BME280;50187;50.492;12.134;2023-04-03T12:15:22;98679.66;;;21.08;33.11
20160;BME280;50187;50.492;12.134;2023-04-03T12:18:43;98689.63;;;21.08;33.40
20160;BME280;50187;50.492;12.134;2023-04-03T12:27:18;98682.78;;;21.04;33.26
20160;BME280;50187;50.492;12.134;2023-04-03T12:30:16;98664.13;;;21.01;33.41
20160;BME280;50187;50.492;12.134;2023-04-03T12:33:20;98670.41;;;21.11;33.22
20160;BME280;50187;50.492;12.134;2023-04-03T12:36:18;98676.09;;;21.08;33.94
20160;BME280;50187;50.492;12.134;2023-04-03T12:42:41;98674.38;;;20.97;33.97
20160;BME280;50187;50.492;12.134;2023-04-03T12:45:40;98678.50;;;20.91;34.08
20160;BME280;50187;50.492;12.134;2023-04-03T12:48:29;98673.94;;;20.92;33.94
20160;BME280;50187;50.492;12.134;2023-04-03T12:51:21;98679.66;;;20.89;34.16
20160;BME280;50187;50.492;12.134;2023-04-03T12:54:18;98680.63;;;20.88;34.10
20160;BME280;50187;50.492;12.134;2023-04-03T12:57:26;98685.19;;;20.87;34.11
20160;BME280;50187;50.492;12.134;2023-04-03T13:00:30;98665.53;;;20.85;34.24
20160;BME280;50187;50.492;12.134;2023-04-03T13:03:25;98675.22;;;20.88;34.13
20160;BME280;50187;50.492;12.134;2023-04-03T13:06:39;98669.41;;;20.83;34.25
20160;BME280;50187;50.492;12.134;2023-04-03T13:09:30;98661.41;;;20.91;34.04
20160;BME280;50187;50.492;12.134;2023-04-03T13:12:17;98663.56;;;20.87;34.15
20160;BME280;50187;50.492;12.134;2023-04-03T13:15:25;98660.56;;;20.90;34.24
20160;BME280;50187;50.492;12.134;2023-04-03T13:18:29;98656.72;;;20.93;34.10
20160;BME280;50187;50.492;12.134;2023-04-03T13:21:25;98644.06;;;20.93;34.18
20160;BME280;50187;50.492;12.134;2023-04-03T13:24:11;98646.47;;;20.97;34.30
20160;BME280;50187;50.492;12.134;2023-04-03T13:27:00;98661.72;;;20.98;33.92
20160;BME280;50187;50.492;12.134;2023-04-03T13:29:51;98659.88;;;20.88;34.09
20160;BME280;50187;50.492;12.134;2023-04-03T13:32:38;98655.84;;;20.92;34.09
20160;BME280;50187;50.492;12.134;2023-04-03T13:41:21;98651.19;;;20.95;34.11
20160;BME280;50187;50.492;12.134;2023-04-03T13:44:26;98641.91;;;20.87;34.22
20160;BME280;50187;50.492;12.134;2023-04-03T13:47:20;98638.09;;;20.90;34.42
20160;BME280;50187;50.492;12.134;2023-04-03T19:24:23;98685.16;;;20.68;33.67
20160;BME280;50187;50.492;12.134;2023-04-03T19:27:10;98677.44;;;20.63;33.86
20160;BME280;50187;50.492;12.134;2023-04-03T19:29:55;98684.53;;;20.64;33.66
20160;BME280;50187;50.492;12.134;2023-04-03T19:32:40;98690.56;;;20.68;33.62
20160;BME280;50187;50.492;12.134;2023-04-03T19:35:25;98686.38;;;20.64;33.83
20160;BME280;50187;50.492;12.134;2023-04-03T19:38:09;98688.81;;;20.67;33.72
20160;BME280;50187;50.492;12.134;2023-04-03T19:40:55;98691.00;;;20.73;33.54
20160;BME280;50187;50.492;12.134;2023-04-03T19:43:40;98683.00;;;20.71;33.70
20160;BME280;50187;50.492;12.134;2023-04-03T19:46:27;98689.56;;;20.69;33.81
20160;BME280;50187;50.492;12.134;2023-04-03T19:49:13;98691.25;;;20.70;33.70
20160;BME280;50187;50.492;12.134;2023-04-03T19:51:59;98680.06;;;20.74;33.59
20160;BME280;50187;50.492;12.134;2023-04-03T19:54:44;98698.97;;;20.74;33.65
20160;BME280;50187;50.492;12.134;2023-04-03T19:57:29;98690.72;;;20.76;33.52
20160;BME280;50187;50.492;12.134;2023-04-03T20:00:15;98703.38;;;20.75;33.41
20160;BME280;50187;50.492;12.134;2023-04-03T20:03:00;98697.13;;;20.75;33.65
20160;BME280;50187;50.492;12.134;2023-04-03T20:05:46;98685.31;;;20.76;33.66
20160;BME280;50187;50.492;12.134;2023-04-03T20:08:31;98696.97;;;20.76;33.38
20160;BME280;50187;50.492;12.134;2023-04-03T20:11:16;98695.41;;;20.74;33.51
20160;BME280;50187;50.492;12.134;2023-04-03T20:14:02;98693.28;;;20.78;33.54
20160;BME280;50187;50.492;12.134;2023-04-03T20:16:47;98697.72;;;20.79;33.56
20160;BME280;50187;50.492;12.134;2023-04-03T20:19:32;98700.41;;;20.79;33.59
20160;BME280;50187;50.492;12.134;2023-04-03T20:22:17;98709.66;;;20.76;33.40
20160;BME280;50187;50.492;12.134;2023-04-03T20:25:08;98692.41;;;20.77;33.65
20160;BME280;50187;50.492;12.134;2023-04-03T20:27:53;98695.25;;;20.75;33.46
20160;BME280;50187;50.492;12.134;2023-04-03T20:30:38;98696.84;;;20.78;33.36
20160;BME280;50187;50.492;12.134;2023-04-03T20:33:24;98691.84;;;20.73;33.42
20160;BME280;50187;50.492;12.134;2023-04-03T20:36:12;98696.13;;;20.76;33.65
20160;BME280;50187;50.492;12.134;2023-04-03T20:38:58;98687.16;;;20.75;33.52
20160;BME280;50187;50.492;12.134;2023-04-03T20:41:43;98690.88;;;20.74;33.50
20160;BME280;50187;50.492;12.134;2023-04-03T20:44:29;98693.56;;;20.74;33.57
20160;BME280;50187;50.492;12.134;2023-04-03T20:47:14;98686.44;;;20.73;33.48
20160;BME280;50187;50.492;12.134;2023-04-03T20:50:00;98693.56;;;20.74;33.47
20160;BME280;50187;50.492;12.134;2023-04-03T20:52:45;98698.25;;;20.72;33.44
20160;BME280;50187;50.492;12.134;2023-04-03T20:55:31;98693.81;;;20.71;33.69
20160;BME280;50187;50.492;12.134;2023-04-03T20:58:16;98691.00;;;20.73;33.64
20160;BME280;50187;50.492;12.134;2023-04-03T21:01:18;98695.53;;;20.72;33.42
20160;BME280;50187;50.492;12.134;2023-04-03T21:04:15;98685.00;;;20.69;33.57
20160;BME280;50187;50.492;12.134;2023-04-03T21:20:03;98676.81;;;20.50;33.81
20160;BME280;50187;50.492;12.134;2023-04-03T21:22:48;98663.13;;;20.41;33.83
20160;BME280;50187;50.492;12.134;2023-04-03T21:25:34;98673.09;;;20.41;33.86
20160;BME280;50187;50.492;12.134;2023-04-03T21:28:20;98683.44;;;20.36;33.75
20160;BME280;50187;50.492;12.134;2023-04-03T21:31:05;98669.75;;;20.28;33.75
20160;BME280;50187;50.492;12.134;2023-04-03T21:33:51;98673.19;;;20.30;33.93
20160;BME280;50187;50.492;12.134;2023-04-03T21:36:39;98670.91;;;20.25;34.08
20160;BME280;50187;50.492;12.134;2023-04-03T21:39:24;98680.84;;;20.24;34.01
20160;BME280;50187;50.492;12.134;2023-04-03T21:42:10;98678.41;;;20.21;33.92
20160;BME280;50187;50.492;12.134;2023-04-03T21:44:55;98670.88;;;20.15;34.24
20160;BME280;50187;50.492;12.134;2023-04-03T21:47:42;98687.78;;;20.17;34.06